createdAt,value
2022-12-08T00:04:11.637Z,99867.44
2022-12-08T00:09:24.686Z,99850.66
2022-12-08T00:14:29.844Z,99852.09
2022-12-08T00:19:32.316Z,99831.81
2022-12-08T00:24:36.025Z,99831.34
2022-12-08T00:29:39.931Z,99828.19
2022-12-08T00:34:42.581Z,99830.13
2022-12-08T00:39:45.009Z,99823.72
2022-12-08T00:44:48.811Z,99825.59
2022-12-08T00:49:51.241Z,99821.09
2022-12-08T00:54:53.655Z,99817.56
2022-12-08T00:59:57.511Z,99819.25
2022-12-08T01:04:59.958Z,99808.63
2022-12-08T01:10:02.873Z,99806.16
2022-12-08T01:15:07.445Z,99806.41
2022-12-08T01:20:10.191Z,99821.25
2022-12-08T01:25:12.680Z,99816.94
2022-12-08T01:30:16.693Z,99814.00
2022-12-08T01:35:19.204Z,99808.75
2022-12-08T01:40:21.646Z,99815.28
2022-12-08T01:45:27.086Z,99808.44
2022-12-08T01:50:30.739Z,99802.66
2022-12-08T01:55:35.044Z,99802.53
2022-12-08T02:00:38.841Z,99775.69
2022-12-08T02:05:42.107Z,99786.34
2022-12-08T02:10:44.751Z,99777.81
2022-12-08T02:15:54.307Z,99779.38
2022-12-08T02:20:59.073Z,99774.97
2022-12-08T02:26:14.962Z,99782.31
2022-12-08T02:31:22.073Z,99770.53
2022-12-08T02:36:27.321Z,99778.00
2022-12-08T02:41:33.339Z,99776.03
2022-12-08T02:46:39.268Z,99770.22
2022-12-08T02:51:43.303Z,99760.53
2022-12-08T02:56:54.613Z,99757.88
2022-12-08T03:02:07.927Z,99754.16
2022-12-08T03:07:15.859Z,99754.81
2022-12-08T03:12:21.217Z,99750.66
2022-12-08T03:17:25.981Z,99744.38
2022-12-08T03:22:30.148Z,99733.16
2022-12-08T03:27:33.098Z,99737.59
2022-12-08T03:32:38.261Z,99731.50
2022-12-08T03:37:42.597Z,99730.06
2022-12-08T03:42:45.033Z,99726.72
2022-12-08T03:47:47.492Z,99730.28
2022-12-08T03:52:51.297Z,99718.78
2022-12-08T03:57:53.755Z,99719.72
2022-12-08T04:02:56.287Z,99714.38
2022-12-08T04:08:01.197Z,99699.22
2022-12-08T04:13:03.730Z,99696.44
2022-12-08T04:18:06.238Z,99694.09
2022-12-08T04:23:12.292Z,99687.16
2022-12-08T04:28:15.368Z,99681.59
2022-12-08T04:33:18.018Z,99674.91
2022-12-08T04:38:21.815Z,99677.09
2022-12-08T04:43:24.342Z,99681.91
2022-12-08T04:48:26.788Z,99678.00
2022-12-08T04:53:30.584Z,99682.06
2022-12-08T04:58:32.995Z,99672.47
2022-12-08T05:03:35.518Z,99669.84
2022-12-08T05:08:39.293Z,99676.09
2022-12-08T05:13:41.916Z,99682.75
2022-12-08T05:18:44.801Z,99691.72
2022-12-08T05:23:48.777Z,99688.50
2022-12-08T05:28:51.479Z,99681.84
2022-12-08T05:33:57.390Z,99687.91
2022-12-08T05:39:03.476Z,99685.53
2022-12-08T05:44:06.329Z,99684.22
2022-12-08T05:49:09.865Z,99674.91
2022-12-08T05:54:14.136Z,99674.34
2022-12-08T05:59:16.984Z,99665.38
2022-12-08T06:04:19.443Z,99671.63
2022-12-08T06:09:23.424Z,99670.72
2022-12-08T06:14:26.321Z,99663.25
2022-12-08T06:19:28.781Z,99658.59
2022-12-08T06:24:32.662Z,99668.47
2022-12-08T06:29:35.195Z,99666.28
2022-12-08T06:34:37.837Z,99661.47
2022-12-08T06:39:41.925Z,99670.44
2022-12-08T06:44:44.539Z,99667.50
2022-12-08T06:49:47.039Z,99667.22
2022-12-08T06:54:50.881Z,99664.72
2022-12-08T06:59:53.315Z,99659.69
2022-12-08T07:04:55.728Z,99663.28
2022-12-08T07:09:59.496Z,99669.41
2022-12-08T07:15:01.908Z,99679.09
2022-12-08T07:20:04.769Z,99689.38
2022-12-08T07:25:09.404Z,99679.00
2022-12-08T07:30:12.185Z,99666.59
2022-12-08T07:35:14.792Z,99673.03
2022-12-08T07:40:18.650Z,99668.06
2022-12-08T07:45:21.165Z,99665.34
2022-12-08T07:50:23.576Z,99650.19
2022-12-08T07:55:27.453Z,99657.44
2022-12-08T08:00:29.916Z,99668.31
2022-12-08T08:05:32.436Z,99667.41
2022-12-08T08:10:36.183Z,99671.31
2022-12-08T08:15:38.782Z,99660.59
2022-12-08T08:20:41.387Z,99664.78
2022-12-08T08:25:45.137Z,99662.75
2022-12-08T08:30:48.117Z,99666.75
2022-12-08T08:35:50.910Z,99669.22
2022-12-08T08:40:55.553Z,99666.19
2022-12-08T08:46:00.567Z,99660.59
2022-12-08T08:51:08.416Z,99659.97
2022-12-08T08:56:13.622Z,99659.00
2022-12-08T09:01:16.980Z,99654.53
2022-12-08T09:06:19.586Z,99657.19
2022-12-08T09:11:23.976Z,99652.34
2022-12-08T09:16:26.519Z,99644.84
2022-12-08T09:21:29.051Z,99646.69
2022-12-08T09:26:32.908Z,99634.53
2022-12-08T09:31:35.431Z,99634.84
2022-12-08T09:36:37.953Z,99636.47
2022-12-08T09:41:48.553Z,99630.91
2022-12-08T09:46:53.002Z,99619.66
2022-12-08T09:51:55.860Z,99622.66
2022-12-08T09:57:01.956Z,99618.50
2022-12-08T10:02:10.953Z,99609.63
2022-12-08T10:07:17.330Z,99607.28
2022-12-08T10:12:23.062Z,99610.72
2022-12-08T10:17:26.725Z,99600.16
2022-12-08T10:22:33.052Z,99599.34
2022-12-08T10:27:37.772Z,99603.97
2022-12-08T10:32:40.352Z,99595.00
2022-12-08T10:37:43.004Z,99589.59
2022-12-08T10:42:48.471Z,99581.75
2022-12-08T10:47:57.877Z,99588.28
2022-12-08T10:53:01.241Z,99583.38
2022-12-08T10:58:05.051Z,99574.66
2022-12-08T11:03:07.600Z,99566.06
2022-12-08T11:08:10.172Z,99560.63
2022-12-08T11:13:20.752Z,99563.34
2022-12-08T11:18:26.770Z,99555.25
2022-12-08T11:23:30.114Z,99549.78
2022-12-08T11:28:33.997Z,99546.03
2022-12-08T11:33:36.412Z,99542.50
2022-12-08T11:38:41.971Z,99539.00
2022-12-08T11:43:49.455Z,99537.59
2022-12-08T11:48:54.226Z,99534.91
2022-12-08T11:54:06.878Z,99530.28
2022-12-08T11:59:14.440Z,99530.25
2022-12-08T12:04:19.932Z,99526.81
2022-12-08T12:09:30.143Z,99530.56
2022-12-08T12:14:46.950Z,99527.59
2022-12-08T12:19:49.766Z,99524.88
2022-12-08T12:24:53.153Z,99527.09
2022-12-08T12:29:59.092Z,99516.44
2022-12-08T12:35:02.690Z,99516.22
2022-12-08T12:40:08.296Z,99515.84
2022-12-08T12:45:32.935Z,99510.94
2022-12-08T12:50:42.282Z,99509.97
2022-12-08T12:55:55.626Z,99512.00
2022-12-08T13:01:13.169Z,99504.59
2022-12-08T13:06:23.382Z,99500.81
2022-12-08T13:11:26.031Z,99494.09
2022-12-08T13:16:32.497Z,99489.97
2022-12-08T13:21:37.856Z,99486.91
2022-12-08T13:26:45.386Z,99488.69
2022-12-08T13:31:51.255Z,99478.88
2022-12-08T13:37:01.731Z,99476.16
2022-12-08T13:42:06.712Z,99483.13
2022-12-08T13:54:16.478Z,99478.25
2022-12-08T13:58:00.299Z,99490.72
2022-12-08T14:03:03.101Z,99490.91
2022-12-08T14:08:10.370Z,99493.97
2022-12-08T14:13:13.491Z,99494.59
2022-12-08T14:18:26.184Z,99489.31
2022-12-08T14:23:29.958Z,99492.41
2022-12-08T14:28:32.749Z,99496.75
2022-12-08T14:33:35.191Z,99494.59
2022-12-08T14:38:39.122Z,99498.88
2022-12-08T14:43:43.107Z,99501.91
2022-12-08T14:48:45.555Z,99503.78
2022-12-08T14:53:54.135Z,99510.84
2022-12-08T14:59:05.604Z,99505.44
2022-12-08T15:04:09.565Z,99506.78
2022-12-08T15:09:18.636Z,99502.97
2022-12-08T15:14:32.081Z,99505.69
2022-12-08T15:19:34.917Z,99511.09
2022-12-08T15:24:38.721Z,99508.63
2022-12-08T15:29:43.639Z,99512.84
2022-12-08T15:34:46.471Z,99514.81
2022-12-08T15:39:50.604Z,99520.47
2022-12-08T15:44:53.030Z,99524.84
2022-12-08T15:49:55.459Z,99532.97
2022-12-08T15:54:59.305Z,99529.47
2022-12-08T16:00:01.776Z,99526.72
2022-12-08T16:05:41.551Z,99536.53
2022-12-08T16:10:45.474Z,99529.22
2022-12-08T16:15:59.158Z,99531.34
2022-12-08T16:21:12.329Z,99533.50
2022-12-08T16:27:35.126Z,99530.31
2022-12-08T16:31:51.907Z,99543.88
2022-12-08T16:36:54.431Z,99547.66
2022-12-08T16:42:15.809Z,99559.69
2022-12-08T16:47:18.425Z,99575.19
2022-12-08T16:52:20.904Z,99572.09
2022-12-08T16:57:24.767Z,99578.47
2022-12-08T17:02:27.247Z,99587.00
2022-12-08T17:07:30.092Z,99585.72
2022-12-08T17:12:35.670Z,99584.97
2022-12-08T17:17:39.354Z,99583.69
2022-12-08T17:22:42.005Z,99579.75
2022-12-08T17:27:45.784Z,99584.25
2022-12-08T17:32:48.260Z,99581.59
2022-12-08T17:37:50.773Z,99583.53
2022-12-08T17:42:54.566Z,99583.41
2022-12-08T17:47:57.186Z,99581.16
2022-12-08T17:52:59.819Z,99585.63
2022-12-08T17:58:03.743Z,99595.47
2022-12-08T18:03:06.189Z,99600.31
2022-12-08T18:08:09.825Z,99598.63
2022-12-08T18:13:13.676Z,99590.00
2022-12-08T18:18:16.146Z,99589.28
2022-12-08T18:23:18.910Z,99590.47
2022-12-08T18:28:23.691Z,99597.94
2022-12-08T18:33:26.171Z,99600.19
2022-12-08T18:38:28.638Z,99593.56
2022-12-08T18:43:32.437Z,99597.56
2022-12-08T18:48:35.183Z,99600.94
2022-12-08T18:53:37.699Z,99605.78
2022-12-08T18:58:41.935Z,99608.75
2022-12-08T19:04:04.729Z,99607.50
2022-12-08T19:09:07.159Z,99604.22
2022-12-08T19:14:11.069Z,99612.22
2022-12-08T19:19:13.555Z,99608.97
2022-12-08T19:24:16.064Z,99615.97
2022-12-08T19:29:19.888Z,99610.72
2022-12-08T19:34:22.410Z,99617.81
2022-12-08T19:39:42.603Z,99613.44
2022-12-08T19:44:53.575Z,99618.25
2022-12-08T19:50:18.726Z,99625.56
2022-12-08T19:55:21.360Z,99609.78
2022-12-08T20:00:25.554Z,99605.56
2022-12-08T20:05:27.992Z,99606.16
2022-12-08T20:10:33.848Z,99606.72
2022-12-08T20:15:37.782Z,99612.69
2022-12-08T20:20:40.698Z,99607.56
2022-12-08T20:25:50.480Z,99615.03
2022-12-08T20:30:54.539Z,99622.78
2022-12-08T20:36:00.687Z,99629.31
2022-12-08T20:41:03.256Z,99641.84
2022-12-08T20:46:10.248Z,99643.00
2022-12-08T20:51:13.693Z,99656.88
2022-12-08T20:56:17.067Z,99660.34
2022-12-08T21:01:26.863Z,99657.28
2022-12-08T21:06:29.890Z,99652.25
2022-12-08T21:11:34.716Z,99651.78
2022-12-08T21:16:40.111Z,99652.69
2022-12-08T21:21:43.041Z,99662.00
2022-12-08T21:26:45.912Z,99662.19
2022-12-08T21:31:52.059Z,99660.06
2022-12-08T21:36:54.747Z,99667.94
2022-12-08T21:42:14.960Z,99665.41
2022-12-08T21:47:19.092Z,99673.75
2022-12-08T21:52:23.043Z,99665.81
2022-12-08T21:57:25.717Z,99660.75
2022-12-08T22:02:29.900Z,99664.56
2022-12-08T22:07:32.684Z,99667.50
2022-12-08T22:12:35.437Z,99663.28
2022-12-08T22:17:40.516Z,99675.13
2022-12-08T22:22:43.515Z,99666.09
2022-12-08T22:27:46.322Z,99657.97
2022-12-08T22:32:50.644Z,99652.63
2022-12-08T22:37:57.774Z,99650.66
2022-12-08T22:43:00.603Z,99653.97
2022-12-08T22:48:05.835Z,99659.97
2022-12-08T22:53:08.605Z,99665.72
2022-12-08T22:58:12.652Z,99662.13
2022-12-08T23:03:16.671Z,99664.88
2022-12-08T23:08:19.471Z,99661.13
2022-12-08T23:13:24.806Z,99665.34
2022-12-08T23:18:28.754Z,99657.81
2022-12-08T23:23:31.388Z,99658.84
2022-12-08T23:28:33.902Z,99665.91
2022-12-08T23:33:40.651Z,99662.25
2022-12-08T23:38:43.194Z,99663.25
2022-12-08T23:43:46.933Z,99665.34
2022-12-08T23:48:51.382Z,99665.50
2022-12-08T23:53:54.052Z,99667.72
2022-12-08T23:58:57.582Z,99658.47
